Terminal Aerodrome Forecast
Issued by NWS Wilmington, OH

Current Version | Previous Version | Graphics & Text | Print | Product List | Glossary On
Versions: 1 2 3 4 5 6 7 8 9 10 11 12 13 14 15 16 17 18 19 20 21 22
011
FTUS41 KILN 112320
TAFCVG
TAF
KCVG 112320Z 1200/1306 VRB03KT P6SM FEW040 SCT120
     FM121400 24005KT P6SM BKN040
     FM121700 25012KT P6SM OVC025
     FM122300 27012G20KT P6SM VCSH OVC025
     FM130200 30016G28KT 4SM -SHSN OVC025
     FM130500 31014G20KT P6SM VCSH BKN040=

USA.gov is the U.S. government's official web portal to all federal, state and local government web resources and services.